Карточка аэропорта URKK

Внимание!
Информация на этой странице в стадии наполнения.
Если вы не увидели какой-то информации, или заметили неточность - пожалуйста сообщите нам!
Спасибо!
Команда RU-STAFF
Название аэропортаПашковский
Название аэропорта (англ.)Pashkovskiy
Превышение120 ft. (36.6 m.)
Координаты45°2.0820000000001', 39°10.218'
Высота перехода4000 ft
Эшелон переходаFL60 (QNH >= 977); FL70 (QNH < 977)
Коды ответчика1030-1037
Зона ОрВДРостов-на-Дону РПИ (URRV)
Данные METARURKK 290700Z 21004MPS 170V240 9999 FEW/// 21/17 Q1012 R23L/CLRD70 NOSIG RMK QFE755
Проноз погоды (TAF)URKK 290445Z 2906/3006 23003G08MPS 9999 SCT020CB TEMPO 2906/2921 6000 -SHRA BKN016CB PROB40 2906/2921 -TSRA BECMG 2909/2910 25005G12MPS FM292100 13003MPS 6000 SCT016 TEMPO 2921/3006 0300 FG BKN001
NOTAMshow/hide NOTAM
AWOS   TABLE

Информация о ВПП

ВПП Длина ВПП (м.) Покрытие Курс ВПП Частота ILS
23R2200Асфальтобетон226 
23L3000Железобетон226 
05R3000Железобетон46 
05L2200Асфальтобетон46 

Диспетчерские позиции

Позывной Наименование органа УВД Частота
URKK_GNDКраснодар-Руление119.0
URKK_APPКраснодар-Подход129.6
URKK_R_APPКраснодар-Круг121.3
URKK_TWRКраснодар-Вышка118.2



Спутниковое изображение